createdAt,value
2019-05-20T00:00:43.294Z,586.00
2019-05-20T00:02:48.422Z,116.93
2019-05-20T00:04:52.567Z,461.87
2019-05-20T00:06:57.016Z,74.40
2019-05-20T00:09:02.222Z,52.13
2019-05-20T00:11:07.165Z,49.07
2019-05-20T00:13:12.694Z,44.10
2019-05-20T00:15:17.705Z,46.00
2019-05-20T00:17:21.747Z,45.00
2019-05-20T00:19:25.660Z,43.30
2019-05-20T00:21:30.333Z,41.05
2019-05-20T00:23:35.888Z,40.63
2019-05-20T00:25:39.796Z,39.87
2019-05-20T00:27:43.488Z,40.40
2019-05-20T00:29:48.165Z,40.27
2019-05-20T00:31:53.111Z,39.50
2019-05-20T00:33:57.157Z,38.73
2019-05-20T00:36:01.324Z,40.33
2019-05-20T00:38:05.727Z,56.47
2019-05-20T00:40:10.331Z,173.97
2019-05-20T00:42:14.639Z,699.23
2019-05-20T00:44:18.735Z,922.83
2019-05-20T00:46:22.728Z,537.77
2019-05-20T00:48:27.822Z,951.87
2019-05-20T00:50:31.763Z,633.50
2019-05-20T00:52:36.306Z,363.68
2019-05-20T00:54:41.720Z,257.23
2019-05-20T00:56:45.464Z,216.40
2019-05-20T00:58:49.429Z,183.73
2019-05-20T01:00:53.168Z,165.10
2019-05-20T01:03:14.974Z,133.70
2019-05-20T01:05:19.889Z,100.47
2019-05-20T01:07:24.449Z,90.57
2019-05-20T01:09:28.972Z,94.53
2019-05-20T01:11:32.814Z,86.70
2019-05-20T01:13:37.177Z,86.70
2019-05-20T01:15:40.963Z,72.77
2019-05-20T01:17:44.440Z,87.13
2019-05-20T01:19:49.787Z,79.47
2019-05-20T01:21:53.797Z,71.50
2019-05-20T01:23:57.998Z,65.20
2019-05-20T01:26:04.093Z,67.33
2019-05-20T01:28:08.225Z,64.30
2019-05-20T01:30:12.468Z,55.90
2019-05-20T01:32:17.123Z,62.73
2019-05-20T01:34:21.064Z,77.37
2019-05-20T01:36:25.119Z,72.70
2019-05-20T01:38:29.253Z,74.63
2019-05-20T01:40:33.818Z,54.20
2019-05-20T01:42:37.258Z,58.43
2019-05-20T01:44:41.696Z,60.33
2019-05-20T01:46:45.775Z,61.00
2019-05-20T01:48:49.511Z,52.10
2019-05-20T01:50:54.409Z,50.33
2019-05-20T01:52:58.512Z,54.57
2019-05-20T01:55:03.214Z,48.83
2019-05-20T01:57:08.299Z,51.20
2019-05-20T01:59:12.186Z,42.30
2019-05-20T02:01:16.800Z,45.67
2019-05-20T02:03:30.958Z,46.07
2019-05-20T02:05:26.179Z,38.30
2019-05-20T02:07:31.390Z,38.37
2019-05-20T02:09:35.432Z,46.93
2019-05-20T02:11:40.011Z,33.43
2019-05-20T02:13:44.266Z,33.87
2019-05-20T02:15:48.718Z,33.80
2019-05-20T02:17:52.611Z,37.73
2019-05-20T02:19:56.880Z,35.47
2019-05-20T02:22:01.279Z,41.93
2019-05-20T02:24:05.418Z,30.77
2019-05-20T02:26:09.417Z,29.87
2019-05-20T02:28:14.015Z,28.50
2019-05-20T02:30:18.141Z,28.50
2019-05-20T02:32:21.717Z,26.27
2019-05-20T02:34:25.837Z,28.80
2019-05-20T02:36:29.862Z,27.63
2019-05-20T02:38:33.857Z,25.83
2019-05-20T02:40:38.106Z,27.73
2019-05-20T02:42:42.293Z,29.17
2019-05-20T02:44:46.285Z,24.70
2019-05-20T02:46:50.480Z,26.20
2019-05-20T02:48:54.430Z,26.33
2019-05-20T02:50:58.501Z,23.43
2019-05-20T02:53:02.666Z,24.37
2019-05-20T02:55:06.519Z,25.83
2019-05-20T02:57:10.213Z,22.17
2019-05-20T02:59:14.396Z,22.00
2019-05-20T03:01:21.868Z,21.07
2019-05-20T03:03:23.679Z,21.00
2019-05-20T03:05:27.696Z,25.83
2019-05-20T03:07:32.960Z,22.37
2019-05-20T03:09:37.467Z,18.33
2019-05-20T03:11:41.687Z,18.50
2019-05-20T03:13:45.822Z,21.63
2019-05-20T03:15:49.705Z,20.07
2019-05-20T03:17:53.825Z,19.60
2019-05-20T03:19:57.731Z,22.50
2019-05-20T03:22:01.578Z,24.93
2019-05-20T03:24:05.514Z,18.10
2019-05-20T03:26:09.847Z,19.23
2019-05-20T03:28:13.745Z,17.67
2019-05-20T03:30:18.031Z,20.83
2019-05-20T03:32:22.156Z,19.80
2019-05-20T03:34:45.246Z,16.53
2019-05-20T03:36:31.697Z,21.60
2019-05-20T03:38:35.965Z,15.77
2019-05-20T03:40:40.660Z,18.53
2019-05-20T03:42:45.257Z,14.90
2019-05-20T03:44:49.986Z,15.87
2019-05-20T03:46:54.122Z,16.73
2019-05-20T03:48:58.082Z,15.83
2019-05-20T03:51:02.388Z,18.50
2019-05-20T03:53:06.561Z,14.80
2019-05-20T03:55:10.452Z,17.93
2019-05-20T03:57:14.697Z,15.47
2019-05-20T03:59:18.926Z,15.47
2019-05-20T04:01:22.746Z,14.13
2019-05-20T04:03:26.691Z,16.13
2019-05-20T04:05:31.199Z,16.87
2019-05-20T04:07:35.531Z,13.50
2019-05-20T04:09:39.499Z,16.10
2019-05-20T04:11:43.665Z,14.00
2019-05-20T04:13:47.576Z,14.20
2019-05-20T04:15:51.737Z,13.57
2019-05-20T04:17:57.075Z,13.47
2019-05-20T04:20:01.372Z,13.33
2019-05-20T04:22:05.969Z,13.50
2019-05-20T04:24:10.283Z,12.17
2019-05-20T04:26:14.591Z,13.77
2019-05-20T04:28:18.736Z,11.33
2019-05-20T04:30:22.572Z,11.10
2019-05-20T04:32:26.662Z,15.77
2019-05-20T04:34:31.052Z,13.53
2019-05-20T04:36:34.904Z,11.50
2019-05-20T04:38:39.299Z,12.80
2019-05-20T04:40:43.104Z,11.87
2019-05-20T04:42:47.028Z,12.10
2019-05-20T04:44:52.301Z,10.10
2019-05-20T04:46:58.060Z,13.70
2019-05-20T04:49:01.837Z,12.17
2019-05-20T04:51:06.033Z,12.23
2019-05-20T04:53:09.988Z,11.67
2019-05-20T04:55:14.440Z,11.30
2019-05-20T04:57:18.561Z,11.47
2019-05-20T04:59:22.763Z,11.80
2019-05-20T05:01:26.576Z,14.00
2019-05-20T05:03:30.757Z,11.43
2019-05-20T05:05:37.572Z,13.40
2019-05-20T05:07:39.394Z,11.90
2019-05-20T05:09:43.529Z,11.70
2019-05-20T05:11:47.426Z,12.90
2019-05-20T05:13:50.944Z,11.00
2019-05-20T05:15:55.966Z,11.63
2019-05-20T05:18:00.318Z,10.80
2019-05-20T05:20:04.205Z,12.33
2019-05-20T05:22:08.694Z,10.23
2019-05-20T05:24:12.804Z,10.00
2019-05-20T05:26:16.452Z,10.53
2019-05-20T05:28:20.552Z,10.43
2019-05-20T05:30:24.320Z,11.67
2019-05-20T05:32:28.348Z,10.07
2019-05-20T05:34:32.381Z,12.60
2019-05-20T05:36:36.460Z,10.73
2019-05-20T05:38:40.555Z,10.40
2019-05-20T05:40:44.774Z,11.00
2019-05-20T05:42:49.210Z,12.80
2019-05-20T05:44:53.181Z,11.90
2019-05-20T05:46:57.397Z,11.03
2019-05-20T05:49:01.506Z,11.70
2019-05-20T05:51:05.402Z,11.30
2019-05-20T05:53:09.340Z,12.00
2019-05-20T05:55:13.662Z,10.73
2019-05-20T05:57:17.233Z,12.47
2019-05-20T05:59:21.388Z,11.53
2019-05-20T06:01:25.060Z,12.13
2019-05-20T06:03:28.978Z,10.17
2019-05-20T06:05:32.841Z,10.13
2019-05-20T06:07:38.928Z,10.27
2019-05-20T06:09:42.905Z,9.73
2019-05-20T06:11:47.142Z,10.30
2019-05-20T06:13:50.919Z,9.70
2019-05-20T06:15:55.466Z,11.50
2019-05-20T06:17:59.500Z,10.50
2019-05-20T06:20:03.373Z,9.73
2019-05-20T06:22:07.167Z,10.87
2019-05-20T06:24:11.371Z,10.00
2019-05-20T06:26:15.107Z,9.90
2019-05-20T06:28:18.965Z,9.73
2019-05-20T06:30:23.308Z,10.50
2019-05-20T06:32:28.313Z,9.47
2019-05-20T06:34:32.403Z,10.13
2019-05-20T06:36:36.373Z,10.33
2019-05-20T06:38:40.213Z,10.00
2019-05-20T06:40:44.832Z,10.80
2019-05-20T06:42:48.988Z,10.70
2019-05-20T06:44:57.033Z,10.17
2019-05-20T06:46:58.550Z,10.87
2019-05-20T06:49:03.377Z,10.27
2019-05-20T06:51:07.249Z,11.63
2019-05-20T06:53:11.610Z,10.07
2019-05-20T06:55:15.461Z,8.60
2019-05-20T06:57:19.685Z,10.50
2019-05-20T06:59:23.758Z,10.17
2019-05-20T07:01:28.490Z,9.70
2019-05-20T07:03:32.573Z,8.33
2019-05-20T07:05:36.849Z,9.33
2019-05-20T07:07:41.300Z,9.87
2019-05-20T07:09:45.194Z,10.80
2019-05-20T07:11:52.775Z,9.60
2019-05-20T07:13:54.682Z,9.73
2019-05-20T07:15:58.737Z,10.00
2019-05-20T07:18:02.450Z,9.13
2019-05-20T07:20:06.771Z,9.90
2019-05-20T07:22:11.063Z,10.17
2019-05-20T07:24:14.985Z,9.40
2019-05-20T07:26:18.885Z,10.73
2019-05-20T07:28:23.243Z,10.40
2019-05-20T07:30:27.005Z,8.63
2019-05-20T07:32:31.243Z,9.43
2019-05-20T07:34:35.166Z,9.47
2019-05-20T07:36:38.668Z,10.30
2019-05-20T07:38:42.857Z,9.33
2019-05-20T07:40:46.760Z,9.60
2019-05-20T07:42:50.518Z,8.83
2019-05-20T07:44:54.494Z,9.13
2019-05-20T07:46:58.770Z,10.33
2019-05-20T07:49:02.822Z,11.00
2019-05-20T07:51:07.062Z,9.13
2019-05-20T07:53:12.110Z,9.17
2019-05-20T07:55:16.012Z,9.13
2019-05-20T07:57:19.995Z,8.77
2019-05-20T07:59:23.731Z,9.07
2019-05-20T08:01:27.368Z,9.23
2019-05-20T08:03:32.186Z,10.30
2019-05-20T08:05:36.073Z,9.40
2019-05-20T08:07:51.755Z,8.77
2019-05-20T08:09:46.753Z,7.90
2019-05-20T08:11:50.678Z,10.30
2019-05-20T08:13:54.447Z,8.80
2019-05-20T08:15:58.447Z,10.23
2019-05-20T08:18:02.342Z,9.10
2019-05-20T08:20:06.258Z,8.40
2019-05-20T08:22:10.196Z,10.00
2019-05-20T08:24:14.787Z,9.47
2019-05-20T08:26:18.747Z,10.10
2019-05-20T08:28:22.569Z,7.90
2019-05-20T08:30:26.682Z,8.97
2019-05-20T08:32:30.847Z,10.40
2019-05-20T08:34:34.959Z,11.70
2019-05-20T08:36:38.628Z,9.50
2019-05-20T08:38:42.660Z,9.30
2019-05-20T08:40:48.759Z,8.87
2019-05-20T08:42:51.775Z,9.73
2019-05-20T08:44:55.488Z,9.13
2019-05-20T08:46:59.392Z,8.40
2019-05-20T08:49:03.852Z,8.93
2019-05-20T08:51:07.419Z,8.40
2019-05-20T08:53:13.230Z,10.20
2019-05-20T08:55:17.441Z,9.23
2019-05-20T08:57:21.369Z,8.77
2019-05-20T08:59:25.144Z,9.73
2019-05-20T09:01:28.957Z,9.70
2019-05-20T09:03:32.546Z,8.87
2019-05-20T09:05:36.937Z,9.53
2019-05-20T09:07:40.576Z,10.63
2019-05-20T09:09:44.574Z,9.53
2019-05-20T09:11:48.813Z,9.40
2019-05-20T09:13:52.392Z,9.03
2019-05-20T09:15:56.178Z,9.60
2019-05-20T09:18:00.502Z,11.20
2019-05-20T09:20:04.580Z,8.87
2019-05-20T09:22:08.362Z,9.07
2019-05-20T09:24:12.329Z,8.67
2019-05-20T09:26:16.520Z,8.87
2019-05-20T09:28:20.365Z,9.43
2019-05-20T09:30:24.456Z,9.20
2019-05-20T09:32:28.669Z,10.13
2019-05-20T09:34:32.359Z,9.47
2019-05-20T09:36:36.628Z,9.40
2019-05-20T09:38:40.695Z,9.90
2019-05-20T09:40:44.442Z,9.83
2019-05-20T09:42:48.287Z,8.90
2019-05-20T09:44:51.988Z,11.70
2019-05-20T09:46:56.027Z,9.37
2019-05-20T09:49:00.331Z,9.10
2019-05-20T09:51:04.352Z,8.50
2019-05-20T09:53:08.245Z,9.97
2019-05-20T09:55:12.239Z,10.40
2019-05-20T09:57:16.235Z,10.00
2019-05-20T09:59:20.146Z,9.37
2019-05-20T10:01:24.182Z,9.07
2019-05-20T10:03:27.955Z,8.57
2019-05-20T10:05:31.572Z,9.30
2019-05-20T10:07:35.428Z,11.53
2019-05-20T10:09:40.087Z,10.40
2019-05-20T10:11:43.917Z,9.20
2019-05-20T10:13:47.678Z,8.80
2019-05-20T10:15:51.553Z,8.80
2019-05-20T10:17:55.504Z,10.10
2019-05-20T10:19:59.505Z,10.67
2019-05-20T10:22:03.641Z,9.40
2019-05-20T10:24:07.513Z,8.80
2019-05-20T10:26:11.964Z,9.70
2019-05-20T10:28:16.051Z,9.07
2019-05-20T10:30:20.151Z,8.30
2019-05-20T10:32:24.901Z,8.90
2019-05-20T10:34:28.687Z,9.20
2019-05-20T10:36:32.699Z,10.70
2019-05-20T10:38:54.534Z,8.90
2019-05-20T10:40:41.625Z,9.27
2019-05-20T10:42:45.264Z,8.67
2019-05-20T10:44:49.169Z,9.87
2019-05-20T10:46:54.061Z,8.70
2019-05-20T10:48:58.077Z,10.60
2019-05-20T10:51:02.112Z,9.33
2019-05-20T10:53:05.886Z,9.97
2019-05-20T10:55:09.372Z,9.80
2019-05-20T10:57:14.616Z,11.90
2019-05-20T10:59:19.014Z,9.67
2019-05-20T11:01:22.961Z,9.70
2019-05-20T11:03:27.032Z,9.10
2019-05-20T11:05:30.918Z,9.70
2019-05-20T11:07:34.604Z,11.73
2019-05-20T11:09:39.527Z,9.27
2019-05-20T11:11:43.341Z,9.90
2019-05-20T11:13:47.445Z,8.97
2019-05-20T11:15:51.530Z,10.50
2019-05-20T11:17:55.300Z,8.83
2019-05-20T11:19:59.631Z,8.97
2019-05-20T11:22:03.635Z,9.10
2019-05-20T11:24:07.329Z,8.07
2019-05-20T11:26:11.160Z,11.10
2019-05-20T11:28:15.359Z,8.80
2019-05-20T11:30:19.250Z,8.80
2019-05-20T11:32:23.368Z,11.77
2019-05-20T11:34:26.894Z,13.87
2019-05-20T11:36:31.007Z,10.43
2019-05-20T11:38:34.956Z,14.40
2019-05-20T11:40:39.147Z,13.50
2019-05-20T11:42:42.568Z,13.40
2019-05-20T11:44:47.223Z,13.77
2019-05-20T11:46:51.460Z,13.53
2019-05-20T11:48:55.277Z,11.03
2019-05-20T11:50:59.292Z,15.70
2019-05-20T11:53:03.550Z,13.57
2019-05-20T11:55:07.202Z,15.73
2019-05-20T11:57:10.904Z,11.20
2019-05-20T11:59:15.056Z,10.27
2019-05-20T12:01:18.950Z,12.53
2019-05-20T12:03:22.966Z,9.93
2019-05-20T12:05:26.965Z,14.57
2019-05-20T12:07:30.671Z,11.30
2019-05-20T12:09:48.341Z,10.10
2019-05-20T12:11:39.701Z,10.13
2019-05-20T12:13:43.721Z,9.30
2019-05-20T12:15:47.958Z,9.77
2019-05-20T12:17:51.950Z,10.60
2019-05-20T12:19:55.941Z,11.67
2019-05-20T12:21:59.841Z,12.23
2019-05-20T12:24:03.459Z,10.50
2019-05-20T12:26:07.361Z,12.10
2019-05-20T12:28:11.902Z,10.37
2019-05-20T12:30:16.232Z,11.47
2019-05-20T12:32:20.386Z,9.33
2019-05-20T12:34:24.719Z,9.50
2019-05-20T12:36:29.022Z,10.90
2019-05-20T12:38:32.822Z,11.60
2019-05-20T12:40:36.412Z,12.13
2019-05-20T12:42:41.555Z,10.17
2019-05-20T12:44:45.159Z,10.00
2019-05-20T12:46:49.308Z,10.07
2019-05-20T12:48:53.394Z,10.57
2019-05-20T12:50:57.067Z,14.57
2019-05-20T12:53:00.905Z,10.77
2019-05-20T12:55:08.473Z,12.83
2019-05-20T12:57:11.583Z,11.97
2019-05-20T12:59:15.971Z,11.13
2019-05-20T13:01:20.233Z,12.47
2019-05-20T13:03:24.643Z,13.87
2019-05-20T13:05:29.273Z,12.47
2019-05-20T13:07:33.264Z,10.70
2019-05-20T13:09:37.385Z,11.73
2019-05-20T13:11:41.244Z,12.37
2019-05-20T13:13:45.229Z,12.50
2019-05-20T13:15:48.872Z,12.40
2019-05-20T13:17:52.980Z,13.00
2019-05-20T13:19:57.017Z,12.50
2019-05-20T13:22:01.085Z,15.20
2019-05-20T13:24:05.938Z,13.70
2019-05-20T13:26:09.866Z,11.03
2019-05-20T13:28:14.460Z,14.13
2019-05-20T13:30:18.259Z,16.90
2019-05-20T13:32:22.382Z,14.80
2019-05-20T13:34:26.923Z,15.90
2019-05-20T13:36:30.562Z,12.87
2019-05-20T13:38:34.658Z,13.97
2019-05-20T13:40:46.438Z,17.33
2019-05-20T13:42:43.853Z,19.37
2019-05-20T13:44:47.723Z,15.40
2019-05-20T13:46:51.553Z,13.43
2019-05-20T13:48:55.526Z,13.10
2019-05-20T13:50:59.597Z,11.80
2019-05-20T13:53:03.154Z,17.00
2019-05-20T13:55:07.471Z,14.80
2019-05-20T13:57:13.256Z,13.93
2019-05-20T13:59:16.716Z,218.50
2019-05-20T14:01:20.513Z,125.43
2019-05-20T14:03:25.630Z,155.10
2019-05-20T14:05:30.008Z,60.07
2019-05-20T14:07:33.754Z,58.30
2019-05-20T14:09:37.567Z,48.67
2019-05-20T14:11:41.273Z,41.50
2019-05-20T14:13:45.020Z,41.47
2019-05-20T14:15:49.285Z,40.03
2019-05-20T14:17:53.120Z,38.03
2019-05-20T14:19:57.172Z,39.67
2019-05-20T14:22:01.525Z,39.87
2019-05-20T14:24:05.462Z,32.90
2019-05-20T14:26:10.759Z,30.33
2019-05-20T14:28:14.767Z,29.77
2019-05-20T14:30:18.875Z,27.40
2019-05-20T14:32:22.702Z,31.03
2019-05-20T14:34:26.474Z,29.63
2019-05-20T14:36:39.278Z,26.30
2019-05-20T14:38:35.940Z,32.70
2019-05-20T14:40:39.729Z,27.93
2019-05-20T14:42:44.958Z,24.67
2019-05-20T14:44:49.850Z,24.73
2019-05-20T14:46:53.903Z,26.50
2019-05-20T14:49:01.978Z,27.97
2019-05-20T14:51:02.962Z,20.23
2019-05-20T14:53:07.079Z,21.33
2019-05-20T14:55:11.027Z,20.57
2019-05-20T14:57:14.855Z,20.80
2019-05-20T14:59:18.573Z,21.03
2019-05-20T15:01:22.665Z,24.10
2019-05-20T15:03:27.254Z,21.57
2019-05-20T15:05:31.814Z,76.67
2019-05-20T15:07:36.247Z,163.67
2019-05-20T15:09:49.126Z,104.17
2019-05-20T15:11:53.077Z,197.97
2019-05-20T15:13:59.892Z,146.13
2019-05-20T15:16:02.702Z,105.93
2019-05-20T15:18:14.184Z,76.47
2019-05-20T15:20:20.395Z,98.93
2019-05-20T15:22:25.466Z,76.50
2019-05-20T15:24:30.236Z,81.03
2019-05-20T15:26:34.534Z,66.47
2019-05-20T15:28:38.720Z,53.10
2019-05-20T15:30:42.773Z,46.77
2019-05-20T15:32:46.245Z,46.07
2019-05-20T15:34:50.299Z,48.37
2019-05-20T15:36:54.731Z,50.60
2019-05-20T15:38:59.551Z,39.87
2019-05-20T15:41:03.408Z,37.17
2019-05-20T15:43:07.503Z,48.50
2019-05-20T15:45:14.387Z,61.10
2019-05-20T15:47:19.284Z,53.40
2019-05-20T15:49:24.098Z,53.30
2019-05-20T15:51:29.575Z,60.33
2019-05-20T15:53:33.633Z,53.17
2019-05-20T15:55:38.303Z,52.83
2019-05-20T15:57:43.482Z,32.17
2019-05-20T15:59:48.632Z,33.63
2019-05-20T16:01:52.926Z,29.13
2019-05-20T16:03:56.780Z,34.63
2019-05-20T16:06:01.008Z,31.67
2019-05-20T16:08:05.729Z,31.13
2019-05-20T16:10:11.541Z,27.40
2019-05-20T16:12:15.273Z,28.40
2019-05-20T16:14:19.754Z,22.37
2019-05-20T16:16:23.711Z,19.40
2019-05-20T16:18:27.720Z,37.43
2019-05-20T16:20:32.374Z,29.17
2019-05-20T16:22:36.827Z,28.00
2019-05-20T16:24:45.221Z,24.83
2019-05-20T16:26:48.140Z,17.53
2019-05-20T16:28:52.258Z,24.50
2019-05-20T16:30:56.398Z,21.53
2019-05-20T16:33:00.307Z,19.70
2019-05-20T16:35:04.066Z,20.50
2019-05-20T16:37:08.295Z,17.60
2019-05-20T16:39:12.489Z,22.13
2019-05-20T16:41:16.726Z,17.10
2019-05-20T16:43:20.717Z,24.03
2019-05-20T16:45:25.678Z,20.03
2019-05-20T16:47:29.653Z,11.40
2019-05-20T16:49:34.272Z,11.30
2019-05-20T16:51:38.921Z,16.63
2019-05-20T16:53:43.522Z,13.53
2019-05-20T16:55:48.070Z,16.70
2019-05-20T16:57:52.499Z,15.70
2019-05-20T16:59:57.017Z,14.20
2019-05-20T17:02:01.232Z,15.93
2019-05-20T17:04:05.895Z,28.03
2019-05-20T17:06:10.348Z,12.53
2019-05-20T17:08:15.056Z,12.60
2019-05-20T17:10:20.540Z,14.87
2019-05-20T17:12:24.911Z,11.37
2019-05-20T17:14:28.733Z,10.30
2019-05-20T17:16:32.634Z,16.10
2019-05-20T17:18:36.417Z,11.60
2019-05-20T17:20:39.815Z,11.03
2019-05-20T17:22:44.540Z,9.43
2019-05-20T17:24:48.239Z,15.77
2019-05-20T17:26:52.228Z,18.77
2019-05-20T17:28:56.380Z,14.07
2019-05-20T17:31:00.520Z,20.40
2019-05-20T17:33:04.518Z,12.90
2019-05-20T17:35:08.485Z,17.70
2019-05-20T17:37:13.902Z,11.57
2019-05-20T17:39:19.454Z,17.63
2019-05-20T17:41:23.630Z,15.37
2019-05-20T17:43:27.824Z,10.70
2019-05-20T17:45:32.931Z,10.57
2019-05-20T17:47:37.581Z,13.10
2019-05-20T17:49:41.490Z,15.53
2019-05-20T17:51:45.260Z,10.70
2019-05-20T17:53:49.325Z,15.50
2019-05-20T17:55:53.072Z,12.93
2019-05-20T17:57:58.417Z,9.70
2019-05-20T18:00:03.075Z,13.93
2019-05-20T18:02:07.669Z,13.23
2019-05-20T18:04:11.671Z,11.40
2019-05-20T18:06:15.675Z,19.40
2019-05-20T18:08:19.580Z,20.13
2019-05-20T18:10:23.377Z,14.57
2019-05-20T18:12:27.182Z,25.77
2019-05-20T18:14:32.320Z,18.50
2019-05-20T18:16:36.490Z,24.23
2019-05-20T18:18:40.456Z,15.43
2019-05-20T18:20:44.849Z,16.50
2019-05-20T18:22:49.185Z,19.17
2019-05-20T18:24:52.775Z,15.20
2019-05-20T18:26:56.766Z,12.27
2019-05-20T18:29:00.692Z,13.57
2019-05-20T18:31:04.604Z,15.00
2019-05-20T18:33:08.673Z,9.67
2019-05-20T18:35:12.784Z,10.77
2019-05-20T18:37:16.699Z,15.30
2019-05-20T18:39:20.417Z,10.60
2019-05-20T18:41:24.461Z,15.57
2019-05-20T18:43:28.320Z,14.40
2019-05-20T18:45:32.440Z,15.30
2019-05-20T18:47:36.340Z,23.23
2019-05-20T18:49:41.718Z,23.10
2019-05-20T18:51:46.294Z,23.93
2019-05-20T18:53:50.418Z,21.33
2019-05-20T18:55:54.344Z,24.00
2019-05-20T18:57:58.767Z,33.00
2019-05-20T19:00:03.523Z,22.33
2019-05-20T19:02:07.661Z,19.47
2019-05-20T19:04:11.369Z,16.30
2019-05-20T19:06:15.443Z,15.73
2019-05-20T19:08:20.307Z,14.37
2019-05-20T19:10:24.007Z,19.57
2019-05-20T19:12:27.729Z,13.40
2019-05-20T19:14:32.290Z,18.90
2019-05-20T19:16:37.162Z,11.10
2019-05-20T19:18:41.071Z,19.53
2019-05-20T19:20:45.281Z,12.30
2019-05-20T19:22:48.863Z,13.40
2019-05-20T19:24:53.347Z,10.90
2019-05-20T19:26:57.436Z,12.27
2019-05-20T19:29:01.028Z,12.63
2019-05-20T19:31:07.842Z,8.80
2019-05-20T19:33:10.984Z,16.07
2019-05-20T19:35:14.892Z,10.90
2019-05-20T19:37:18.931Z,11.30
2019-05-20T19:39:22.899Z,7.63
2019-05-20T19:41:26.885Z,11.37
2019-05-20T19:43:31.807Z,9.77
2019-05-20T19:45:35.402Z,13.60
2019-05-20T19:47:39.931Z,15.23
2019-05-20T19:49:44.575Z,7.70
2019-05-20T19:51:48.855Z,8.67
2019-05-20T19:53:52.916Z,8.93
2019-05-20T19:55:56.900Z,7.40
2019-05-20T19:58:01.293Z,7.60
2019-05-20T20:00:05.320Z,7.23
2019-05-20T20:02:16.876Z,8.97
2019-05-20T20:04:14.743Z,8.87
2019-05-20T20:06:18.671Z,11.37
2019-05-20T20:08:22.464Z,9.73
2019-05-20T20:10:26.515Z,5.30
2019-05-20T20:12:30.312Z,7.90
2019-05-20T20:14:34.068Z,7.17
2019-05-20T20:16:39.099Z,6.43
2019-05-20T20:18:43.218Z,10.30
2019-05-20T20:20:47.424Z,10.57
2019-05-20T20:22:53.173Z,7.60
2019-05-20T20:24:57.889Z,7.37
2019-05-20T20:27:01.929Z,6.53
2019-05-20T20:29:06.656Z,5.03
2019-05-20T20:31:11.495Z,5.60
2019-05-20T20:33:15.480Z,9.60
2019-05-20T20:35:21.496Z,7.33
2019-05-20T20:37:26.893Z,7.37
2019-05-20T20:39:34.552Z,7.53
2019-05-20T20:41:39.207Z,4.73
2019-05-20T20:43:43.423Z,5.10
2019-05-20T20:45:47.822Z,6.97
2019-05-20T20:47:53.453Z,6.10
2019-05-20T20:49:57.698Z,5.23
2019-05-20T20:52:02.464Z,5.40
2019-05-20T20:54:06.713Z,4.80
2019-05-20T20:56:24.193Z,4.87
2019-05-20T20:58:16.872Z,3.90
2019-05-20T21:00:21.004Z,4.87
2019-05-20T21:02:25.061Z,4.10
2019-05-20T21:04:28.803Z,4.30
2019-05-20T21:06:32.910Z,5.47
2019-05-20T21:08:36.603Z,5.07
2019-05-20T21:10:40.506Z,3.40
2019-05-20T21:12:44.414Z,3.40
2019-05-20T21:14:48.282Z,3.97
2019-05-20T21:16:52.043Z,3.60
2019-05-20T21:18:56.062Z,3.43
2019-05-20T21:21:00.447Z,3.53
2019-05-20T21:23:05.309Z,4.30
2019-05-20T21:25:09.045Z,4.10
2019-05-20T21:27:12.883Z,2.87
2019-05-20T21:29:16.497Z,3.73
2019-05-20T21:31:20.494Z,3.10
2019-05-20T21:33:23.981Z,3.80
2019-05-20T21:35:29.022Z,3.50
2019-05-20T21:37:32.931Z,4.03
2019-05-20T21:39:36.518Z,2.80
2019-05-20T21:41:40.947Z,2.87
2019-05-20T21:43:44.836Z,3.40
2019-05-20T21:45:48.535Z,2.43
2019-05-20T21:47:52.446Z,2.83
2019-05-20T21:49:56.245Z,4.10
2019-05-20T21:52:00.248Z,3.10
2019-05-20T21:54:06.101Z,3.00
2019-05-20T21:56:10.352Z,3.23
2019-05-20T21:58:14.583Z,3.00
2019-05-20T22:00:18.634Z,2.90
2019-05-20T22:02:26.519Z,3.70
2019-05-20T22:04:29.000Z,3.50
2019-05-20T22:06:33.044Z,3.27
2019-05-20T22:08:37.584Z,3.47
2019-05-20T22:10:42.159Z,2.73
2019-05-20T22:12:46.072Z,2.60
2019-05-20T22:14:50.498Z,3.10
2019-05-20T22:16:54.847Z,2.60
2019-05-20T22:18:58.691Z,1.90
2019-05-20T22:21:02.837Z,2.87
2019-05-20T22:23:07.212Z,2.87
2019-05-20T22:25:11.142Z,2.67
2019-05-20T22:27:15.543Z,2.53
2019-05-20T22:29:19.771Z,2.90
2019-05-20T22:31:24.094Z,2.77
2019-05-20T22:33:40.483Z,2.43
2019-05-20T22:35:34.043Z,3.00
2019-05-20T22:37:37.816Z,3.10
2019-05-20T22:39:42.670Z,2.37
2019-05-20T22:41:46.592Z,3.10
2019-05-20T22:43:50.724Z,3.97
2019-05-20T22:45:55.554Z,2.50
2019-05-20T22:47:59.229Z,3.00
2019-05-20T22:50:03.314Z,2.57
2019-05-20T22:52:07.738Z,2.83
2019-05-20T22:54:12.101Z,4.33
2019-05-20T22:56:15.748Z,2.73
2019-05-20T22:58:20.244Z,2.73
2019-05-20T23:00:24.428Z,2.90
2019-05-20T23:02:28.725Z,2.60
2019-05-20T23:04:32.927Z,3.67
2019-05-20T23:06:36.507Z,2.77
2019-05-20T23:08:40.675Z,3.20
2019-05-20T23:10:45.563Z,3.60
2019-05-20T23:12:49.478Z,3.93
2019-05-20T23:14:53.366Z,2.90
2019-05-20T23:16:57.558Z,3.20
2019-05-20T23:19:01.375Z,3.53
2019-05-20T23:21:05.281Z,2.63
2019-05-20T23:23:09.815Z,3.60
2019-05-20T23:25:14.032Z,2.30
2019-05-20T23:27:18.032Z,2.40
2019-05-20T23:29:22.035Z,2.57
2019-05-20T23:31:25.609Z,3.47
2019-05-20T23:33:29.465Z,2.67
2019-05-20T23:35:33.323Z,4.40
2019-05-20T23:37:37.024Z,2.90
2019-05-20T23:39:41.476Z,2.57
2019-05-20T23:41:45.684Z,2.70
2019-05-20T23:43:50.178Z,4.43
2019-05-20T23:45:54.204Z,7.07
2019-05-20T23:47:58.686Z,6.33
2019-05-20T23:50:02.823Z,3.90
2019-05-20T23:52:06.528Z,5.17
2019-05-20T23:54:10.427Z,6.00
2019-05-20T23:56:14.322Z,7.03
2019-05-20T23:58:19.146Z,7.87
